<?xml version="1.0" encoding="UTF-8" standalone="no" ?>
<gpx xmlns="http://www.topografix.com/GPX/1/1" xmlns:xsi="http://www.w3.org/2001/XMLSchema-instance" xsi:schemaLocation="http://www.topografix.com/GPX/1/1 http://www.topografix.com/GPX/1/1/gpx.xsd" version="1.1" creator="VisuGPX - https://www.visugpx.com">
  <metadata>
    <name>Argentina</name>
    <desc><![CDATA[Downloaded from eMap Software Version 2.75]]></desc>
  </metadata>
  <trk>
    <name><![CDATA[Argentina_120]]></name>
    <extensions>
      <line xmlns="http://www.topografix.com/GPX/gpx_style/0/2">
        <color>ff0000</color>
        <opacity>0.78</opacity>
        <width>0.6000</width>
      </line>
    </extensions>
    <trkseg>
      <trkpt lat="43.61383" lon="6.94709">
        <ele>36.186768</ele>
        <time>2009-08-22T10:03:16Z</time>
      </trkpt>
      <trkpt lat="43.6139" lon="6.94731">
        <ele>75.60083</ele>
        <time>2009-08-22T10:03:24Z</time>
      </trkpt>
      <trkpt lat="43.61396" lon="6.94716">
        <ele>80.407471</ele>
        <time>2009-08-22T10:03:44Z</time>
      </trkpt>
      <trkpt lat="43.61396" lon="6.94694">
        <ele>78.965454</ele>
        <time>2009-08-22T10:04:02Z</time>
      </trkpt>
      <trkpt lat="43.61396" lon="6.9466">
        <ele>78.004028</ele>
        <time>2009-08-22T10:04:32Z</time>
      </trkpt>
      <trkpt lat="43.61396" lon="6.94632">
        <ele>78.004028</ele>
        <time>2009-08-22T10:04:57Z</time>
      </trkpt>
      <trkpt lat="43.61375" lon="6.946">
        <ele>78.004028</ele>
        <time>2009-08-22T10:05:26Z</time>
      </trkpt>
      <trkpt lat="43.6136" lon="6.94583">
        <ele>78.004028</ele>
        <time>2009-08-22T10:05:49Z</time>
      </trkpt>
      <trkpt lat="43.61349" lon="6.94576">
        <ele>77.042847</ele>
        <time>2009-08-22T10:06:06Z</time>
      </trkpt>
      <trkpt lat="43.61334" lon="6.94561">
        <ele>77.042847</ele>
        <time>2009-08-22T10:06:32Z</time>
      </trkpt>
      <trkpt lat="43.61334" lon="6.94561">
        <ele>77.042847</ele>
        <time>2009-08-22T10:06:45Z</time>
      </trkpt>
      <trkpt lat="43.6133" lon="6.94563">
        <ele>77.042847</ele>
        <time>2009-08-22T10:06:57Z</time>
      </trkpt>
      <trkpt lat="43.61315" lon="6.94559">
        <ele>76.562134</ele>
        <time>2009-08-22T10:07:22Z</time>
      </trkpt>
      <trkpt lat="43.61302" lon="6.94559">
        <ele>76.562134</ele>
        <time>2009-08-22T10:07:46Z</time>
      </trkpt>
      <trkpt lat="43.61289" lon="6.94555">
        <ele>76.562134</ele>
        <time>2009-08-22T10:07:58Z</time>
      </trkpt>
      <trkpt lat="43.61248" lon="6.94529">
        <ele>76.562134</ele>
        <time>2009-08-22T10:08:25Z</time>
      </trkpt>
      <trkpt lat="43.61227" lon="6.94516">
        <ele>76.562134</ele>
        <time>2009-08-22T10:08:41Z</time>
      </trkpt>
      <trkpt lat="43.61193" lon="6.94508">
        <ele>74.639526</ele>
        <time>2009-08-22T10:09:01Z</time>
      </trkpt>
      <trkpt lat="43.6118" lon="6.94501">
        <ele>73.197632</ele>
        <time>2009-08-22T10:09:23Z</time>
      </trkpt>
      <trkpt lat="43.6118" lon="6.94501">
        <ele>73.678223</ele>
        <time>2009-08-22T10:09:24Z</time>
      </trkpt>
      <trkpt lat="43.61188" lon="6.94525">
        <ele>75.120239</ele>
        <time>2009-08-22T10:09:46Z</time>
      </trkpt>
      <trkpt lat="43.6119" lon="6.94561">
        <ele>75.60083</ele>
        <time>2009-08-22T10:10:21Z</time>
      </trkpt>
      <trkpt lat="43.61182" lon="6.946">
        <ele>74.158813</ele>
        <time>2009-08-22T10:11:10Z</time>
      </trkpt>
      <trkpt lat="43.61175" lon="6.94613">
        <ele>73.678223</ele>
        <time>2009-08-22T10:11:43Z</time>
      </trkpt>
      <trkpt lat="43.61162" lon="6.94628">
        <ele>81.849365</ele>
        <time>2009-08-22T10:12:25Z</time>
      </trkpt>
      <trkpt lat="43.6115" lon="6.94643">
        <ele>81.368774</ele>
        <time>2009-08-22T10:13:13Z</time>
      </trkpt>
    </trkseg>
  </trk>
</gpx>